createdAt,value
2018-09-19T00:01:10.149Z,6.30
2018-09-19T00:03:38.754Z,5.70
2018-09-19T00:06:07.541Z,5.73
2018-09-19T00:08:35.989Z,6.00
2018-09-19T00:11:04.534Z,5.97
2018-09-19T00:13:33.132Z,5.80
2018-09-19T00:16:01.615Z,5.90
2018-09-19T00:18:30.203Z,5.97
2018-09-19T00:20:58.669Z,6.40
2018-09-19T00:23:27.162Z,6.27
2018-09-19T00:25:55.852Z,5.10
2018-09-19T00:28:24.333Z,5.80
2018-09-19T00:30:52.852Z,6.47
2018-09-19T00:33:21.445Z,6.13
2018-09-19T00:35:49.960Z,5.83
2018-09-19T00:38:18.449Z,6.10
2018-09-19T00:40:46.858Z,6.27
2018-09-19T00:43:15.340Z,5.97
2018-09-19T00:45:43.775Z,5.40
2018-09-19T00:48:12.243Z,6.23
2018-09-19T00:50:40.735Z,6.47
2018-09-19T00:53:09.212Z,5.73
2018-09-19T00:55:37.832Z,6.30
2018-09-19T00:58:06.373Z,6.57
2018-09-19T01:00:34.978Z,6.73
2018-09-19T01:03:03.523Z,6.17
2018-09-19T01:05:32.012Z,6.37
2018-09-19T01:08:00.545Z,6.60
2018-09-19T01:10:29.054Z,6.67
2018-09-19T01:12:57.570Z,4.73
2018-09-19T01:15:26.024Z,6.63
2018-09-19T01:17:54.492Z,6.20
2018-09-19T01:20:23.049Z,6.80
2018-09-19T01:22:51.492Z,6.37
2018-09-19T01:25:19.956Z,6.27
2018-09-19T01:27:48.408Z,6.30
2018-09-19T01:30:16.956Z,6.07
2018-09-19T01:32:45.506Z,6.07
2018-09-19T01:35:14.230Z,6.67
2018-09-19T01:37:42.847Z,6.60
2018-09-19T01:40:11.370Z,5.90
2018-09-19T01:42:39.881Z,6.60
2018-09-19T01:45:08.359Z,6.37
2018-09-19T01:47:36.932Z,6.20
2018-09-19T01:50:05.475Z,7.10
2018-09-19T01:52:33.900Z,6.13
2018-09-19T01:55:02.514Z,6.37
2018-09-19T01:57:30.958Z,6.20
2018-09-19T01:59:59.531Z,6.77
2018-09-19T02:02:28.000Z,6.63
2018-09-19T02:04:56.455Z,6.83
2018-09-19T02:07:24.985Z,6.07
2018-09-19T02:09:53.412Z,6.60
2018-09-19T02:12:21.952Z,6.50
2018-09-19T02:14:50.437Z,7.07
2018-09-19T02:17:19.048Z,6.70
2018-09-19T02:19:47.528Z,6.83
2018-09-19T02:22:16.008Z,6.90
2018-09-19T02:24:44.409Z,6.97
2018-09-19T02:27:12.918Z,6.47
2018-09-19T02:29:41.432Z,6.83
2018-09-19T02:32:09.933Z,6.47
2018-09-19T02:34:38.394Z,7.10
2018-09-19T02:37:06.855Z,6.97
2018-09-19T02:39:35.333Z,7.40
2018-09-19T02:42:03.832Z,6.73
2018-09-19T02:44:32.331Z,7.30
2018-09-19T02:47:00.817Z,7.20
2018-09-19T02:49:29.245Z,7.47
2018-09-19T02:51:58.385Z,7.17
2018-09-19T02:54:29.135Z,7.53
2018-09-19T02:56:57.754Z,7.50
2018-09-19T02:59:26.464Z,7.40
2018-09-19T03:01:54.957Z,7.70
2018-09-19T03:04:23.426Z,7.57
2018-09-19T03:06:51.902Z,7.73
2018-09-19T03:09:20.401Z,9.37
2018-09-19T03:11:48.890Z,9.23
2018-09-19T03:14:17.407Z,9.40
2018-09-19T03:16:46.180Z,9.70
2018-09-19T03:19:14.732Z,9.23
2018-09-19T03:21:43.230Z,8.47
2018-09-19T03:24:11.737Z,8.63
2018-09-19T03:26:40.243Z,8.30
2018-09-19T03:29:08.694Z,8.70
2018-09-19T03:31:37.337Z,9.57
2018-09-19T03:34:05.992Z,8.67
2018-09-19T03:36:34.696Z,8.80
2018-09-19T03:39:03.526Z,7.70
2018-09-19T03:41:32.117Z,8.70
2018-09-19T03:44:00.711Z,8.30
2018-09-19T03:46:29.176Z,7.47
2018-09-19T03:48:57.757Z,8.27
2018-09-19T03:51:26.433Z,9.17
2018-09-19T03:53:54.861Z,7.90
2018-09-19T03:56:23.339Z,8.43
2018-09-19T03:58:51.841Z,7.90
2018-09-19T04:01:20.381Z,8.43
2018-09-19T04:03:48.889Z,9.07
2018-09-19T04:06:17.361Z,8.40
2018-09-19T04:08:45.951Z,8.30
2018-09-19T04:11:14.408Z,7.57
2018-09-19T04:13:42.986Z,7.67
2018-09-19T04:16:11.426Z,8.00
2018-09-19T04:18:39.869Z,7.47
2018-09-19T04:21:08.322Z,6.60
2018-09-19T04:23:36.782Z,7.80
2018-09-19T04:26:05.392Z,8.70
2018-09-19T04:28:33.796Z,8.20
2018-09-19T04:31:02.269Z,8.10
2018-09-19T04:33:30.732Z,8.37
2018-09-19T04:35:59.234Z,8.73
2018-09-19T04:38:27.932Z,7.83
2018-09-19T04:40:56.413Z,8.53
2018-09-19T04:43:25.071Z,8.10
2018-09-19T04:45:53.960Z,6.90
2018-09-19T04:48:23.485Z,7.87
2018-09-19T04:50:51.966Z,7.63
2018-09-19T04:53:20.446Z,8.53
2018-09-19T04:55:49.176Z,8.50
2018-09-19T04:58:17.686Z,7.33
2018-09-19T05:00:46.146Z,8.43
2018-09-19T05:03:14.777Z,7.20
2018-09-19T05:05:43.323Z,8.40
2018-09-19T05:08:11.787Z,8.90
2018-09-19T05:10:40.213Z,7.87
2018-09-19T05:13:08.810Z,7.70
2018-09-19T05:15:37.563Z,8.17
2018-09-19T05:18:06.292Z,8.80
2018-09-19T05:20:35.035Z,8.47
2018-09-19T05:23:03.718Z,8.43
2018-09-19T05:25:32.584Z,7.60
2018-09-19T05:28:04.203Z,7.97
2018-09-19T05:30:33.052Z,7.93
2018-09-19T05:33:01.685Z,7.77
2018-09-19T05:35:30.458Z,8.10
2018-09-19T05:37:59.051Z,8.07
2018-09-19T05:40:28.011Z,8.20
2018-09-19T05:42:56.725Z,8.60
2018-09-19T05:45:25.495Z,7.83
2018-09-19T05:47:54.296Z,8.00
2018-09-19T05:50:22.988Z,7.83
2018-09-19T05:52:51.421Z,7.77
2018-09-19T05:55:20.050Z,8.47
2018-09-19T05:57:48.888Z,7.93
2018-09-19T06:00:17.605Z,8.87
2018-09-19T06:02:46.240Z,8.13
2018-09-19T06:05:14.829Z,7.17
2018-09-19T06:07:43.268Z,8.10
2018-09-19T06:10:11.778Z,7.30
2018-09-19T06:12:40.268Z,7.27
2018-09-19T06:15:08.773Z,7.47
2018-09-19T06:17:37.764Z,7.60
2018-09-19T06:20:06.902Z,6.80
2018-09-19T06:22:35.322Z,7.00
2018-09-19T06:25:04.054Z,7.20
2018-09-19T06:27:32.625Z,7.67
2018-09-19T06:30:01.689Z,6.43
2018-09-19T06:32:30.173Z,8.00
2018-09-19T06:34:58.641Z,7.30
2018-09-19T06:37:27.226Z,7.33
2018-09-19T06:39:55.739Z,7.47
2018-09-19T06:42:24.230Z,7.73
2018-09-19T06:44:52.794Z,7.00
2018-09-19T06:47:21.248Z,7.13
2018-09-19T06:49:49.731Z,6.90
2018-09-19T06:52:18.282Z,6.60
2018-09-19T06:54:46.681Z,7.03
2018-09-19T06:57:15.218Z,6.93
2018-09-19T06:59:43.770Z,6.50
2018-09-19T07:02:12.430Z,6.83
2018-09-19T07:04:40.957Z,6.50
2018-09-19T07:07:09.472Z,7.00
2018-09-19T07:09:38.556Z,6.27
2018-09-19T07:12:07.079Z,5.97
2018-09-19T07:14:35.535Z,6.53
2018-09-19T07:17:04.026Z,7.50
2018-09-19T07:19:32.462Z,6.60
2018-09-19T07:22:01.001Z,5.93
2018-09-19T07:24:29.427Z,6.90
2018-09-19T07:26:57.899Z,6.50
2018-09-19T07:29:26.340Z,6.57
2018-09-19T07:31:54.785Z,6.87
2018-09-19T07:34:23.238Z,6.73
2018-09-19T07:36:51.718Z,7.40
2018-09-19T07:39:20.239Z,7.80
2018-09-19T07:41:48.749Z,6.33
2018-09-19T07:44:17.305Z,7.13
2018-09-19T07:46:45.892Z,7.17
2018-09-19T07:49:14.293Z,6.63
2018-09-19T07:51:42.736Z,6.83
2018-09-19T07:54:11.353Z,6.37
2018-09-19T07:56:39.965Z,6.20
2018-09-19T07:59:10.195Z,7.23
2018-09-19T08:01:38.838Z,6.50
2018-09-19T08:04:07.415Z,5.60
2018-09-19T08:06:35.833Z,6.23
2018-09-19T08:09:06.165Z,6.28
2018-09-19T08:11:34.602Z,6.33
2018-09-19T08:14:03.108Z,6.17
2018-09-19T08:16:31.578Z,6.00
2018-09-19T08:19:00.034Z,5.92
2018-09-19T08:21:28.532Z,5.25
2018-09-19T08:23:56.975Z,5.65
2018-09-19T08:26:25.434Z,5.70
2018-09-19T08:28:53.869Z,6.43
2018-09-19T08:31:22.328Z,6.30
2018-09-19T08:33:50.836Z,6.10
2018-09-19T08:36:19.312Z,5.80
2018-09-19T08:38:47.802Z,5.80
2018-09-19T08:41:16.273Z,6.33
2018-09-19T08:43:44.748Z,6.20
2018-09-19T08:46:13.265Z,6.00
2018-09-19T08:48:41.910Z,5.77
2018-09-19T08:51:10.401Z,5.70
2018-09-19T08:53:39.041Z,6.13
2018-09-19T08:56:07.481Z,6.40
2018-09-19T08:58:35.960Z,5.73
2018-09-19T09:01:04.433Z,5.23
2018-09-19T09:03:32.884Z,5.73
2018-09-19T09:06:01.370Z,5.50
2018-09-19T09:08:29.824Z,6.15
2018-09-19T09:10:58.245Z,5.30
2018-09-19T09:13:26.745Z,5.40
2018-09-19T09:15:55.200Z,5.90
2018-09-19T09:18:23.645Z,5.10
2018-09-19T09:20:52.089Z,5.00
2018-09-19T09:23:20.563Z,5.28
2018-09-19T09:25:49.032Z,5.67
2018-09-19T09:28:17.600Z,5.50
2018-09-19T09:30:46.146Z,5.08
2018-09-19T09:33:14.623Z,5.40
2018-09-19T09:35:43.093Z,5.33
2018-09-19T09:38:11.624Z,5.05
2018-09-19T09:40:40.056Z,5.08
2018-09-19T09:43:08.499Z,4.95
2018-09-19T09:45:36.981Z,5.15
2018-09-19T09:48:05.777Z,4.45
2018-09-19T09:50:34.302Z,5.25
2018-09-19T09:53:02.819Z,5.08
2018-09-19T09:55:31.282Z,4.80
2018-09-19T09:57:59.733Z,4.53
2018-09-19T10:00:33.460Z,4.72
2018-09-19T10:03:01.985Z,4.58
2018-09-19T10:05:30.678Z,5.20
2018-09-19T10:07:59.132Z,4.53
2018-09-19T10:10:27.552Z,4.92
2018-09-19T10:12:56.104Z,4.35
2018-09-19T10:15:24.565Z,4.53
2018-09-19T10:17:53.017Z,4.90
2018-09-19T10:20:21.470Z,5.00
2018-09-19T10:22:49.931Z,4.53
2018-09-19T10:25:18.400Z,5.07
2018-09-19T10:27:47.024Z,4.85
2018-09-19T10:30:15.513Z,5.33
2018-09-19T10:32:44.246Z,4.97
2018-09-19T10:35:12.714Z,4.83
2018-09-19T10:37:41.149Z,4.95
2018-09-19T10:40:09.835Z,4.97
2018-09-19T10:42:38.735Z,4.05
2018-09-19T10:45:07.992Z,4.08
2018-09-19T10:47:37.144Z,3.58
2018-09-19T10:50:06.146Z,3.17
2018-09-19T10:52:34.756Z,3.85
2018-09-19T10:55:03.324Z,3.65
2018-09-19T10:57:31.998Z,3.67
2018-09-19T11:00:01.986Z,3.35
2018-09-19T11:02:30.484Z,2.85
2018-09-19T11:04:59.172Z,3.77
2018-09-19T11:07:27.902Z,3.63
2018-09-19T11:09:56.747Z,4.13
2018-09-19T11:12:25.395Z,3.43
2018-09-19T11:14:54.033Z,3.20
2018-09-19T11:17:23.830Z,3.40
2018-09-19T11:19:52.388Z,3.40
2018-09-19T11:22:21.025Z,3.40
2018-09-19T11:24:49.653Z,3.33
2018-09-19T11:27:18.283Z,3.67
2018-09-19T11:29:46.829Z,3.50
2018-09-19T11:32:15.531Z,3.70
2018-09-19T11:34:44.078Z,3.37
2018-09-19T11:37:12.534Z,3.90
2018-09-19T11:39:41.009Z,3.70
2018-09-19T11:42:09.633Z,3.03
2018-09-19T11:44:38.075Z,3.10
2018-09-19T11:47:06.744Z,3.00
2018-09-19T11:49:35.333Z,3.40
2018-09-19T11:52:03.896Z,3.43
2018-09-19T11:54:32.590Z,3.90
2018-09-19T11:57:01.405Z,3.43
2018-09-19T11:59:30.194Z,3.73
2018-09-19T12:01:59.068Z,3.30
2018-09-19T12:04:28.114Z,4.13
2018-09-19T12:06:56.946Z,3.47
2018-09-19T12:09:25.389Z,4.03
2018-09-19T12:11:53.892Z,3.70
2018-09-19T12:14:22.660Z,3.43
2018-09-19T12:16:51.408Z,3.47
2018-09-19T12:19:19.892Z,3.30
2018-09-19T12:21:48.393Z,3.90
2018-09-19T12:24:17.084Z,6.30
2018-09-19T12:26:45.723Z,3.60
2018-09-19T12:29:14.310Z,3.60
2018-09-19T12:31:42.918Z,3.83
2018-09-19T12:34:11.687Z,3.70
2018-09-19T12:36:40.175Z,4.10
2018-09-19T12:39:09.992Z,3.53
2018-09-19T12:41:38.819Z,3.57
2018-09-19T12:44:07.376Z,3.70
2018-09-19T12:46:36.223Z,3.77
2018-09-19T12:49:04.978Z,4.50
2018-09-19T12:51:33.461Z,4.83
2018-09-19T12:54:02.271Z,5.27
2018-09-19T12:56:31.037Z,4.03
2018-09-19T12:59:00.164Z,4.20
2018-09-19T13:01:28.720Z,4.67
2018-09-19T13:03:57.179Z,3.77
2018-09-19T13:06:25.668Z,5.43
2018-09-19T13:08:54.254Z,3.57
2018-09-19T13:11:22.851Z,4.50
2018-09-19T13:13:51.451Z,4.67
2018-09-19T13:16:19.903Z,3.90
2018-09-19T13:18:48.475Z,4.23
2018-09-19T13:21:17.177Z,4.07
2018-09-19T13:23:45.636Z,4.20
2018-09-19T13:26:14.151Z,3.97
2018-09-19T13:28:42.685Z,4.93
2018-09-19T13:31:11.220Z,3.90
2018-09-19T13:33:39.711Z,4.37
2018-09-19T13:36:08.946Z,4.20
2018-09-19T13:38:38.005Z,4.13
2018-09-19T13:41:06.826Z,3.70
2018-09-19T13:43:35.928Z,3.77
2018-09-19T13:46:04.559Z,4.90
2018-09-19T13:48:37.332Z,4.30
2018-09-19T13:51:14.808Z,3.60
2018-09-19T13:53:43.255Z,3.90
2018-09-19T13:56:11.768Z,4.13
2018-09-19T13:58:40.243Z,3.87
2018-09-19T14:01:08.784Z,3.30
2018-09-19T14:03:37.288Z,4.07
2018-09-19T14:06:06.443Z,3.83
2018-09-19T14:08:34.957Z,3.50
2018-09-19T14:11:03.545Z,3.60
2018-09-19T14:13:32.119Z,3.80
2018-09-19T14:16:00.561Z,4.87
2018-09-19T14:18:29.073Z,4.60
2018-09-19T14:20:57.627Z,3.80
2018-09-19T14:23:26.295Z,4.77
2018-09-19T14:25:54.749Z,4.57
2018-09-19T14:28:23.279Z,3.77
2018-09-19T14:30:51.699Z,4.43
2018-09-19T14:33:20.511Z,4.80
2018-09-19T14:35:49.088Z,4.00
2018-09-19T14:38:17.692Z,4.27
2018-09-19T14:40:46.127Z,4.10
2018-09-19T14:43:14.642Z,3.63
2018-09-19T14:45:43.259Z,5.57
2018-09-19T14:48:11.927Z,5.13
2018-09-19T14:50:40.534Z,5.43
2018-09-19T14:53:09.131Z,4.67
2018-09-19T14:55:37.946Z,4.60
2018-09-19T14:58:06.679Z,4.07
2018-09-19T15:00:35.324Z,4.00
2018-09-19T15:03:03.849Z,4.97
2018-09-19T15:05:32.814Z,4.60
2018-09-19T15:08:01.655Z,4.43
2018-09-19T15:10:30.205Z,4.10
2018-09-19T15:12:58.674Z,3.70
2018-09-19T15:15:27.528Z,3.63
2018-09-19T15:17:56.224Z,4.07
2018-09-19T15:20:24.803Z,3.83
2018-09-19T15:22:53.380Z,4.13
2018-09-19T15:25:22.027Z,3.43
2018-09-19T15:27:50.669Z,4.20
2018-09-19T15:30:19.218Z,3.77
2018-09-19T15:32:47.709Z,4.43
2018-09-19T15:35:16.456Z,4.10
2018-09-19T15:37:45.350Z,3.87
2018-09-19T15:40:14.302Z,3.83
2018-09-19T15:42:42.913Z,4.53
2018-09-19T15:45:11.706Z,4.70
2018-09-19T15:47:40.225Z,4.43
2018-09-19T15:50:08.719Z,4.40
2018-09-19T15:52:37.301Z,3.87
2018-09-19T15:55:05.819Z,4.33
2018-09-19T15:57:34.364Z,4.23
2018-09-19T16:00:03.000Z,4.33
2018-09-19T16:02:31.473Z,4.60
2018-09-19T16:05:00.329Z,3.83
2018-09-19T16:07:28.900Z,4.10
2018-09-19T16:09:57.437Z,3.90
2018-09-19T16:12:25.957Z,3.80
2018-09-19T16:14:54.736Z,4.10
2018-09-19T16:17:23.559Z,3.90
2018-09-19T16:19:52.280Z,4.07
2018-09-19T16:22:21.211Z,4.17
2018-09-19T16:24:49.852Z,4.40
2018-09-19T16:27:18.618Z,4.23
2018-09-19T16:29:47.351Z,4.07
2018-09-19T16:32:15.988Z,4.67
2018-09-19T16:34:44.533Z,3.90
2018-09-19T16:37:13.129Z,3.30
2018-09-19T16:39:41.863Z,4.50
2018-09-19T16:42:10.754Z,4.70
2018-09-19T16:44:39.533Z,4.70
2018-09-19T16:47:08.179Z,4.53
2018-09-19T16:49:36.820Z,4.10
2018-09-19T16:52:05.463Z,4.23
2018-09-19T16:54:34.189Z,3.90
2018-09-19T16:57:02.850Z,4.03
2018-09-19T16:59:31.472Z,3.80
2018-09-19T17:02:00.154Z,4.13
2018-09-19T17:04:29.408Z,4.20
2018-09-19T17:06:59.421Z,4.10
2018-09-19T17:09:28.450Z,4.03
2018-09-19T17:11:57.775Z,5.23
2018-09-19T17:14:27.137Z,4.83
2018-09-19T17:16:56.127Z,4.13
2018-09-19T17:19:24.963Z,4.50
2018-09-19T17:21:53.555Z,5.30
2018-09-19T17:24:22.571Z,4.57
2018-09-19T17:26:51.149Z,4.90
2018-09-19T17:29:19.744Z,3.70
2018-09-19T17:31:48.625Z,5.00
2018-09-19T17:34:17.268Z,4.60
2018-09-19T17:36:46.114Z,4.17
2018-09-19T17:39:14.648Z,3.90
2018-09-19T17:41:43.273Z,3.40
2018-09-19T17:44:11.845Z,4.43
2018-09-19T17:46:40.608Z,4.10
2018-09-19T17:49:09.305Z,3.67
2018-09-19T17:51:37.967Z,3.87
2018-09-19T17:54:07.688Z,4.80
2018-09-19T17:56:36.404Z,3.47
2018-09-19T17:59:05.072Z,3.57
2018-09-19T18:01:33.956Z,3.80
2018-09-19T18:04:02.646Z,4.43
2018-09-19T18:06:31.440Z,3.40
2018-09-19T18:09:00.304Z,3.80
2018-09-19T18:11:29.268Z,4.00
2018-09-19T18:13:57.885Z,3.50
2018-09-19T18:16:27.415Z,4.27
2018-09-19T18:18:56.073Z,3.60
2018-09-19T18:21:24.693Z,3.97
2018-09-19T18:23:53.700Z,4.37
2018-09-19T18:26:22.228Z,4.50
2018-09-19T18:28:50.811Z,4.63
2018-09-19T18:31:19.490Z,4.20
2018-09-19T18:33:48.234Z,3.97
2018-09-19T18:36:16.833Z,3.93
2018-09-19T18:38:45.397Z,4.10
2018-09-19T18:41:13.937Z,3.97
2018-09-19T18:43:42.609Z,4.13
2018-09-19T18:46:11.893Z,4.40
2018-09-19T18:48:40.405Z,4.63
2018-09-19T18:51:08.974Z,4.63
2018-09-19T18:53:37.740Z,4.87
2018-09-19T18:56:06.454Z,5.13
2018-09-19T18:58:35.030Z,4.90
2018-09-19T19:01:03.777Z,5.33
2018-09-19T19:03:32.743Z,5.27
2018-09-19T19:06:01.437Z,4.37
2018-09-19T19:08:30.170Z,5.40
2018-09-19T19:10:58.863Z,4.80
2018-09-19T19:13:27.493Z,6.10
2018-09-19T19:15:56.488Z,5.23
2018-09-19T19:18:25.267Z,13.40
2018-09-19T19:20:54.328Z,8.00
2018-09-19T19:23:22.896Z,5.73
2018-09-19T19:25:53.005Z,5.20
2018-09-19T19:28:21.740Z,5.50
2018-09-19T19:30:50.534Z,5.57
2018-09-19T19:33:19.974Z,6.40
2018-09-19T19:35:48.951Z,5.57
2018-09-19T19:38:21.142Z,4.63
2018-09-19T19:40:51.208Z,5.60
2018-09-19T19:43:20.561Z,8.03
2018-09-19T19:45:49.522Z,5.10
2018-09-19T19:48:18.531Z,4.90
2018-09-19T19:50:47.815Z,4.83
2018-09-19T19:53:17.397Z,4.73
2018-09-19T19:55:46.237Z,5.00
2018-09-19T19:58:15.181Z,5.40
2018-09-19T20:00:44.474Z,5.30
2018-09-19T20:03:14.284Z,5.50
2018-09-19T20:05:43.747Z,5.30
2018-09-19T20:08:13.308Z,4.70
2018-09-19T20:10:41.908Z,6.20
2018-09-19T20:13:10.725Z,5.63
2018-09-19T20:15:39.270Z,5.27
2018-09-19T20:18:08.089Z,5.77
2018-09-19T20:20:36.595Z,5.17
2018-09-19T20:23:06.030Z,5.87
2018-09-19T20:25:34.587Z,5.53
2018-09-19T20:28:03.238Z,5.50
2018-09-19T20:30:31.708Z,5.53
2018-09-19T20:33:00.161Z,6.30
2018-09-19T20:35:28.629Z,5.83
2018-09-19T20:37:58.090Z,5.37
2018-09-19T20:40:26.537Z,6.20
2018-09-19T20:42:56.176Z,6.20
2018-09-19T20:45:24.644Z,5.20
2018-09-19T20:47:54.158Z,5.93
2018-09-19T20:50:22.627Z,5.83
2018-09-19T20:52:51.377Z,4.90
2018-09-19T20:55:19.870Z,4.50
2018-09-19T20:57:48.972Z,4.80
2018-09-19T21:00:17.445Z,5.47
2018-09-19T21:02:45.916Z,5.67
2018-09-19T21:05:14.377Z,4.53
2018-09-19T21:07:42.806Z,4.80
2018-09-19T21:10:11.255Z,4.73
2018-09-19T21:12:39.932Z,5.30
2018-09-19T21:15:08.425Z,4.20
2018-09-19T21:17:36.893Z,5.03
2018-09-19T21:20:05.686Z,5.53
2018-09-19T21:22:34.197Z,5.53
2018-09-19T21:25:02.722Z,4.90
2018-09-19T21:27:31.251Z,5.17
2018-09-19T21:29:59.713Z,4.87
2018-09-19T21:32:28.277Z,4.60
2018-09-19T21:34:56.790Z,4.77
2018-09-19T21:37:25.307Z,4.33
2018-09-19T21:39:53.800Z,5.33
2018-09-19T21:42:22.446Z,4.87
2018-09-19T21:44:50.974Z,4.83
2018-09-19T21:47:19.413Z,4.97
2018-09-19T21:49:47.943Z,4.63
2018-09-19T21:52:16.684Z,5.03
2018-09-19T21:54:45.153Z,5.00
2018-09-19T21:57:13.706Z,4.83
2018-09-19T21:59:42.182Z,4.73
2018-09-19T22:02:10.728Z,5.53
2018-09-19T22:04:39.293Z,5.03
2018-09-19T22:07:07.790Z,6.00
2018-09-19T22:09:36.277Z,5.47
2018-09-19T22:12:08.944Z,5.40
2018-09-19T22:14:37.729Z,4.93
2018-09-19T22:17:06.524Z,5.57
2018-09-19T22:19:35.256Z,4.70
2018-09-19T22:22:03.837Z,5.80
2018-09-19T22:24:32.705Z,4.97
2018-09-19T22:27:01.180Z,5.03
2018-09-19T22:29:29.624Z,5.87
2018-09-19T22:31:58.186Z,5.87
2018-09-19T22:34:26.814Z,5.40
2018-09-19T22:36:55.307Z,5.60
2018-09-19T22:39:23.915Z,5.67
2018-09-19T22:41:52.426Z,5.57
2018-09-19T22:44:20.955Z,5.20
2018-09-19T22:46:49.505Z,5.43
2018-09-19T22:49:18.046Z,5.83
2018-09-19T22:51:46.607Z,5.83
2018-09-19T22:54:15.046Z,6.30
2018-09-19T22:56:43.726Z,5.33
2018-09-19T22:59:12.425Z,5.70
2018-09-19T23:01:40.997Z,6.27
2018-09-19T23:04:09.505Z,5.97
2018-09-19T23:06:38.232Z,5.83
2018-09-19T23:09:07.896Z,6.40
2018-09-19T23:11:36.423Z,6.17
2018-09-19T23:14:04.930Z,5.30
2018-09-19T23:16:33.437Z,5.67
2018-09-19T23:19:02.284Z,6.20
2018-09-19T23:21:30.829Z,5.73
2018-09-19T23:23:59.441Z,5.33
2018-09-19T23:26:28.076Z,6.00
2018-09-19T23:28:56.629Z,5.70
2018-09-19T23:31:25.358Z,5.37
2018-09-19T23:33:54.395Z,5.97
2018-09-19T23:36:23.024Z,5.63
2018-09-19T23:38:51.605Z,6.40
2018-09-19T23:41:20.086Z,5.70
2018-09-19T23:43:48.624Z,6.60
2018-09-19T23:46:17.102Z,6.03
2018-09-19T23:48:45.648Z,5.97
2018-09-19T23:51:14.196Z,5.83
2018-09-19T23:53:42.719Z,6.27
2018-09-19T23:56:11.201Z,6.00
2018-09-19T23:58:39.654Z,6.27
